Ray Brook, NY (12977)

7:07 PM EDT on September 02, 2014 (GMT -0400)
North Country Community College | Change Station
CLOSE
Current Station
Personal Weather Station
Location: Saranac Lake, NY
Elevation: 1600 ft
Nearby Weather Stations

Elev 1600 ft 44.32 °N, 74.12 °W | Updated 12 seconds ago

Rain
Rain
70.6 °F
Feels Like 71 °F
N
1.6
Wind Variable Wind from SSE
Gusts 3.0 mph

Today
High -- | Low -- °F
--% Chance of Precip.
Yesterday
High -- | Low -- °F
Precip. -- in
6:20 AM 7:30 PM
First Quarter, 56% visible
Pressure 29.77 in
Visibility 8.0 miles
Clouds Few 4400 ft
Mostly Cloudy 7500 ft
Overcast 9000 ft
Heat Index 71 °F
Dew Point 65 °F
Humidity 82%
Rainfall 0.00 in
Snow Depth Not available.
UV 0 out of 12
Pollen 5.20 out of 12
Air Quality Not available.
Flu Activity Not available.
METAR KSLK 022251Z AUTO 26004KT 8SM FEW044 BKN075 OVC090 20/19 A2978 RMK AO2 SLP079 T02000189

More Conditions Fewer Conditions

Pressure 29.77 in
Visibility 8.0 miles
Clouds Few 4400 ft
Mostly Cloudy 7500 ft
Overcast 9000 ft
Heat Index 71 °F
Dew Point 65 °F
Humidity 82%
Rainfall 0.00 in
Snow Depth Not available.
UV 0 out of 12
Pollen 5.20 out of 12
Air Quality Not available.
Flu Activity Not available.
METAR KSLK 022251Z AUTO 26004KT 8SM FEW044 BKN075 OVC090 20/19 A2978 RMK AO2 SLP079 T02000189

More Conditions Fewer Conditions

10-Day Weather Forecast

Almanac

Astronomy

Sep. 02, 2014 Rise Set
Actual Time 6:20 AM EDT 7:30 PM EDT
Civil Twilight 5:50 AM EDT 8:00 PM EDT
Nautical Twilight 5:14 AM EDT 8:36 PM EDT
Astronomical Twilight 4:36 AM EDT 9:13 PM EDT
Moon 2:18 PM EDT No Moon Set
Length of Visible Light 14h 10m
Length of Day
13h 10m
Tomorrow will be 2m 58s shorter.
First Quarter, 56% of the Moon is Illuminated
Today
First Quarter
Sep 8
Full
Sep 15
Last Quarter
Sep 24
New
Oct 1
First Quarter

Today's Extremes

State Highs State Lows

Community

WunderPhotos

Upload Photos

1,749,794 photos uploaded!

Nearby

Air Quality

  Air Quality AQ Index Pollutant
Tuesday Good
PM2.5
Tuesday Good
OZONE
Wednesday Good
OZONE
Wednesday Good
PM2.5

Snow Depth

Station Depth Elevation
No new snow has been reported.

Earthquake Activity

City Distance Mag. Time & Date
No recent earthquake activity has been reported nearby.
Minimum magnitude displayed is 2.5.

Coastal Water Temperatures

Place Temperature
No Stations Reporting

Nearby Weather Stations